sensor_id;sensor_type;location;lat;lon;timestamp;P1;durP1;ratioP1;P2;durP2;ratioP2
5710;SDS011;61291;52.524;13.422;2023-02-28T00:00:00;60.27;;;55.87;;
5710;SDS011;61291;52.524;13.422;2023-02-28T00:02:26;57.30;;;52.77;;
5710;SDS011;61291;52.524;13.422;2023-02-28T00:04:51;57.30;;;53.13;;
5710;SDS011;61291;52.524;13.422;2023-02-28T00:07:26;57.60;;;53.50;;
5710;SDS011;61291;52.524;13.422;2023-02-28T00:09:52;58.60;;;54.40;;
5710;SDS011;61291;52.524;13.422;2023-02-28T00:12:18;59.33;;;54.67;;
5710;SDS011;61291;52.524;13.422;2023-02-28T00:14:43;58.33;;;53.97;;
5710;SDS011;61291;52.524;13.422;2023-02-28T00:17:09;59.33;;;54.73;;
5710;SDS011;61291;52.524;13.422;2023-02-28T00:19:34;59.10;;;55.10;;
5710;SDS011;61291;52.524;13.422;2023-02-28T00:22:00;59.93;;;54.90;;
5710;SDS011;61291;52.524;13.422;2023-02-28T00:24:25;59.63;;;55.30;;
5710;SDS011;61291;52.524;13.422;2023-02-28T00:26:51;59.03;;;54.47;;
5710;SDS011;61291;52.524;13.422;2023-02-28T00:29:16;57.95;;;53.60;;
5710;SDS011;61291;52.524;13.422;2023-02-28T00:31:42;59.30;;;55.10;;
5710;SDS011;61291;52.524;13.422;2023-02-28T00:34:07;59.67;;;55.20;;
5710;SDS011;61291;52.524;13.422;2023-02-28T00:36:32;59.20;;;54.33;;
5710;SDS011;61291;52.524;13.422;2023-02-28T00:38:58;59.07;;;54.57;;
5710;SDS011;61291;52.524;13.422;2023-02-28T00:41:23;59.30;;;54.30;;
5710;SDS011;61291;52.524;13.422;2023-02-28T00:43:49;59.67;;;55.00;;
5710;SDS011;61291;52.524;13.422;2023-02-28T00:46:14;58.73;;;54.10;;
5710;SDS011;61291;52.524;13.422;2023-02-28T00:48:40;60.63;;;55.67;;
5710;SDS011;61291;52.524;13.422;2023-02-28T00:51:05;59.10;;;54.73;;
5710;SDS011;61291;52.524;13.422;2023-02-28T00:53:31;60.10;;;55.33;;
5710;SDS011;61291;52.524;13.422;2023-02-28T00:56:00;60.97;;;56.43;;
5710;SDS011;61291;52.524;13.422;2023-02-28T00:58:26;58.30;;;54.10;;
5710;SDS011;61291;52.524;13.422;2023-02-28T01:00:51;60.20;;;55.60;;
5710;SDS011;61291;52.524;13.422;2023-02-28T01:03:18;60.33;;;55.80;;
5710;SDS011;61291;52.524;13.422;2023-02-28T01:05:45;60.07;;;55.43;;
5710;SDS011;61291;52.524;13.422;2023-02-28T01:08:11;59.57;;;54.70;;
5710;SDS011;61291;52.524;13.422;2023-02-28T01:10:38;58.97;;;54.60;;
5710;SDS011;61291;52.524;13.422;2023-02-28T01:13:04;59.90;;;55.57;;
5710;SDS011;61291;52.524;13.422;2023-02-28T01:15:30;60.50;;;55.47;;
5710;SDS011;61291;52.524;13.422;2023-02-28T01:17:56;60.43;;;55.37;;
5710;SDS011;61291;52.524;13.422;2023-02-28T01:20:22;59.57;;;55.00;;
5710;SDS011;61291;52.524;13.422;2023-02-28T01:22:48;59.40;;;54.80;;
5710;SDS011;61291;52.524;13.422;2023-02-28T01:25:13;59.40;;;55.03;;
5710;SDS011;61291;52.524;13.422;2023-02-28T01:27:39;59.77;;;55.40;;
5710;SDS011;61291;52.524;13.422;2023-02-28T01:30:05;59.77;;;55.50;;
5710;SDS011;61291;52.524;13.422;2023-02-28T01:32:32;59.83;;;55.23;;
5710;SDS011;61291;52.524;13.422;2023-02-28T01:34:57;60.90;;;55.73;;
5710;SDS011;61291;52.524;13.422;2023-02-28T01:37:23;60.33;;;55.80;;
5710;SDS011;61291;52.524;13.422;2023-02-28T01:39:48;60.83;;;56.27;;
5710;SDS011;61291;52.524;13.422;2023-02-28T01:42:14;62.50;;;57.00;;
5710;SDS011;61291;52.524;13.422;2023-02-28T01:44:56;62.23;;;57.30;;
5710;SDS011;61291;52.524;13.422;2023-02-28T01:47:23;58.70;;;54.00;;
5710;SDS011;61291;52.524;13.422;2023-02-28T01:49:51;62.67;;;57.37;;
5710;SDS011;61291;52.524;13.422;2023-02-28T01:52:17;62.67;;;57.80;;
5710;SDS011;61291;52.524;13.422;2023-02-28T01:54:45;61.27;;;56.43;;
5710;SDS011;61291;52.524;13.422;2023-02-28T01:57:16;60.97;;;56.27;;
5710;SDS011;61291;52.524;13.422;2023-02-28T01:59:51;61.07;;;56.20;;
5710;SDS011;61291;52.524;13.422;2023-02-28T02:02:26;53.40;;;48.50;;
5710;SDS011;61291;52.524;13.422;2023-02-28T02:05:00;60.60;;;56.00;;
5710;SDS011;61291;52.524;13.422;2023-02-28T02:07:31;60.13;;;55.53;;
5710;SDS011;61291;52.524;13.422;2023-02-28T02:10:11;58.47;;;54.30;;
5710;SDS011;61291;52.524;13.422;2023-02-28T02:18:19;61.63;;;56.87;;
5710;SDS011;61291;52.524;13.422;2023-02-28T02:24:29;62.07;;;56.97;;
5710;SDS011;61291;52.524;13.422;2023-02-28T02:27:17;62.00;;;57.00;;
5710;SDS011;61291;52.524;13.422;2023-02-28T02:30:13;61.60;;;57.07;;
5710;SDS011;61291;52.524;13.422;2023-02-28T02:38:08;61.80;;;56.97;;
5710;SDS011;61291;52.524;13.422;2023-02-28T02:40:40;60.33;;;55.73;;
5710;SDS011;61291;52.524;13.422;2023-02-28T02:43:16;62.70;;;57.67;;
5710;SDS011;61291;52.524;13.422;2023-02-28T02:45:52;61.07;;;56.67;;
5710;SDS011;61291;52.524;13.422;2023-02-28T02:48:23;62.67;;;57.77;;
5710;SDS011;61291;52.524;13.422;2023-02-28T02:50:54;61.83;;;56.97;;
5710;SDS011;61291;52.524;13.422;2023-02-28T02:53:23;60.43;;;56.00;;
5710;SDS011;61291;52.524;13.422;2023-02-28T02:55:53;61.73;;;56.73;;
5710;SDS011;61291;52.524;13.422;2023-02-28T02:58:23;53.45;;;48.83;;
5710;SDS011;61291;52.524;13.422;2023-02-28T03:00:54;63.90;;;58.70;;
5710;SDS011;61291;52.524;13.422;2023-02-28T03:03:22;63.07;;;58.27;;
5710;SDS011;61291;52.524;13.422;2023-02-28T03:05:54;64.20;;;58.70;;
5710;SDS011;61291;52.524;13.422;2023-02-28T03:08:23;61.83;;;57.13;;
5710;SDS011;61291;52.524;13.422;2023-02-28T03:10:50;61.90;;;55.80;;
5710;SDS011;61291;52.524;13.422;2023-02-28T03:19:12;61.03;;;56.13;;
5710;SDS011;61291;52.524;13.422;2023-02-28T03:24:57;60.60;;;56.00;;
5710;SDS011;61291;52.524;13.422;2023-02-28T03:27:42;65.37;;;60.43;;
5710;SDS011;61291;52.524;13.422;2023-02-28T03:30:23;61.50;;;57.00;;
5710;SDS011;61291;52.524;13.422;2023-02-28T03:32:51;62.83;;;58.07;;
5710;SDS011;61291;52.524;13.422;2023-02-28T03:35:40;56.97;;;51.88;;
5710;SDS011;61291;52.524;13.422;2023-02-28T03:38:19;64.60;;;59.30;;
5710;SDS011;61291;52.524;13.422;2023-02-28T03:40:47;63.90;;;58.70;;
5710;SDS011;61291;52.524;13.422;2023-02-28T03:43:27;64.50;;;59.30;;
5710;SDS011;61291;52.524;13.422;2023-02-28T03:45:57;63.40;;;58.13;;
5710;SDS011;61291;52.524;13.422;2023-02-28T03:48:31;62.77;;;57.83;;
5710;SDS011;61291;52.524;13.422;2023-02-28T03:51:05;60.23;;;55.53;;
5710;SDS011;61291;52.524;13.422;2023-02-28T03:53:41;64.40;;;59.17;;
5710;SDS011;61291;52.524;13.422;2023-02-28T03:56:22;64.57;;;59.53;;
5710;SDS011;61291;52.524;13.422;2023-02-28T03:58:57;64.17;;;59.40;;
5710;SDS011;61291;52.524;13.422;2023-02-28T04:01:32;65.03;;;59.70;;
5710;SDS011;61291;52.524;13.422;2023-02-28T04:04:10;63.53;;;58.37;;
5710;SDS011;61291;52.524;13.422;2023-02-28T04:06:37;63.00;;;58.30;;
5710;SDS011;61291;52.524;13.422;2023-02-28T04:09:04;66.00;;;60.60;;
5710;SDS011;61291;52.524;13.422;2023-02-28T04:11:37;64.50;;;59.77;;
5710;SDS011;61291;52.524;13.422;2023-02-28T04:14:16;66.37;;;60.17;;
5710;SDS011;61291;52.524;13.422;2023-02-28T04:16:42;66.70;;;61.10;;
5710;SDS011;61291;52.524;13.422;2023-02-28T04:19:08;66.87;;;61.10;;
5710;SDS011;61291;52.524;13.422;2023-02-28T04:21:35;60.30;;;55.63;;
5710;SDS011;61291;52.524;13.422;2023-02-28T04:24:06;66.37;;;60.93;;
5710;SDS011;61291;52.524;13.422;2023-02-28T04:26:33;65.17;;;59.73;;
5710;SDS011;61291;52.524;13.422;2023-02-28T04:29:01;69.80;;;63.90;;
5710;SDS011;61291;52.524;13.422;2023-02-28T04:31:30;68.17;;;62.53;;
5710;SDS011;61291;52.524;13.422;2023-02-28T04:33:56;67.97;;;62.87;;
5710;SDS011;61291;52.524;13.422;2023-02-28T04:36:22;68.57;;;62.57;;
5710;SDS011;61291;52.524;13.422;2023-02-28T04:38:48;66.70;;;61.60;;
5710;SDS011;61291;52.524;13.422;2023-02-28T04:41:13;67.90;;;62.67;;
5710;SDS011;61291;52.524;13.422;2023-02-28T04:43:40;66.77;;;60.90;;
5710;SDS011;61291;52.524;13.422;2023-02-28T04:46:05;65.30;;;59.77;;
5710;SDS011;61291;52.524;13.422;2023-02-28T04:48:32;67.07;;;61.47;;
5710;SDS011;61291;52.524;13.422;2023-02-28T04:51:00;65.27;;;60.30;;
5710;SDS011;61291;52.524;13.422;2023-02-28T04:53:27;68.03;;;62.53;;
5710;SDS011;61291;52.524;13.422;2023-02-28T04:55:53;66.33;;;60.83;;
5710;SDS011;61291;52.524;13.422;2023-02-28T04:58:19;66.00;;;60.80;;
5710;SDS011;61291;52.524;13.422;2023-02-28T05:00:47;65.37;;;60.30;;
5710;SDS011;61291;52.524;13.422;2023-02-28T05:03:13;65.60;;;60.17;;
5710;SDS011;61291;52.524;13.422;2023-02-28T05:05:39;65.87;;;60.60;;
5710;SDS011;61291;52.524;13.422;2023-02-28T05:08:04;65.07;;;59.93;;
5710;SDS011;61291;52.524;13.422;2023-02-28T05:10:30;58.47;;;53.30;;
5710;SDS011;61291;52.524;13.422;2023-02-28T05:12:56;67.37;;;61.20;;
5710;SDS011;61291;52.524;13.422;2023-02-28T05:15:21;66.03;;;60.63;;
5710;SDS011;61291;52.524;13.422;2023-02-28T05:17:47;66.37;;;61.50;;
5710;SDS011;61291;52.524;13.422;2023-02-28T05:20:12;67.77;;;61.57;;
5710;SDS011;61291;52.524;13.422;2023-02-28T05:22:41;67.80;;;62.40;;
5710;SDS011;61291;52.524;13.422;2023-02-28T05:25:08;67.87;;;62.40;;
5710;SDS011;61291;52.524;13.422;2023-02-28T05:27:37;67.60;;;61.93;;
5710;SDS011;61291;52.524;13.422;2023-02-28T05:30:03;67.90;;;62.10;;
5710;SDS011;61291;52.524;13.422;2023-02-28T05:32:29;63.57;;;58.30;;
5710;SDS011;61291;52.524;13.422;2023-02-28T05:34:54;67.47;;;61.87;;
5710;SDS011;61291;52.524;13.422;2023-02-28T05:37:20;66.17;;;60.47;;
5710;SDS011;61291;52.524;13.422;2023-02-28T05:39:45;68.10;;;61.20;;
5710;SDS011;61291;52.524;13.422;2023-02-28T05:42:11;73.23;;;67.13;;
5710;SDS011;61291;52.524;13.422;2023-02-28T05:44:37;65.33;;;59.70;;
5710;SDS011;61291;52.524;13.422;2023-02-28T05:47:05;72.93;;;66.00;;
5710;SDS011;61291;52.524;13.422;2023-02-28T05:49:33;66.10;;;60.60;;
5710;SDS011;61291;52.524;13.422;2023-02-28T05:51:59;68.67;;;62.40;;
5710;SDS011;61291;52.524;13.422;2023-02-28T05:54:24;68.43;;;62.40;;
5710;SDS011;61291;52.524;13.422;2023-02-28T05:56:50;69.40;;;63.37;;
5710;SDS011;61291;52.524;13.422;2023-02-28T05:59:15;69.00;;;62.30;;
5710;SDS011;61291;52.524;13.422;2023-02-28T06:01:42;75.67;;;69.20;;
5710;SDS011;61291;52.524;13.422;2023-02-28T06:04:15;70.63;;;64.60;;
5710;SDS011;61291;52.524;13.422;2023-02-28T06:06:47;74.43;;;67.50;;
5710;SDS011;61291;52.524;13.422;2023-02-28T06:09:13;71.70;;;65.10;;
5710;SDS011;61291;52.524;13.422;2023-02-28T06:11:39;71.47;;;64.37;;
5710;SDS011;61291;52.524;13.422;2023-02-28T06:14:05;72.60;;;65.27;;
5710;SDS011;61291;52.524;13.422;2023-02-28T06:16:31;71.87;;;65.87;;
5710;SDS011;61291;52.524;13.422;2023-02-28T06:18:59;74.60;;;67.80;;
5710;SDS011;61291;52.524;13.422;2023-02-28T06:21:26;76.97;;;69.90;;
5710;SDS011;61291;52.524;13.422;2023-02-28T06:23:52;68.27;;;62.47;;
5710;SDS011;61291;52.524;13.422;2023-02-28T06:26:19;70.23;;;63.60;;
5710;SDS011;61291;52.524;13.422;2023-02-28T06:28:45;73.90;;;67.57;;
5710;SDS011;61291;52.524;13.422;2023-02-28T06:31:12;69.67;;;62.90;;
5710;SDS011;61291;52.524;13.422;2023-02-28T06:33:39;75.53;;;68.43;;
5710;SDS011;61291;52.524;13.422;2023-02-28T06:36:05;73.20;;;66.60;;
5710;SDS011;61291;52.524;13.422;2023-02-28T06:38:32;67.30;;;61.10;;
5710;SDS011;61291;52.524;13.422;2023-02-28T06:40:59;67.67;;;61.87;;
5710;SDS011;61291;52.524;13.422;2023-02-28T06:43:27;60.90;;;55.55;;
5710;SDS011;61291;52.524;13.422;2023-02-28T06:45:56;63.07;;;57.97;;
5710;SDS011;61291;52.524;13.422;2023-02-28T06:48:23;64.73;;;59.70;;
5710;SDS011;61291;52.524;13.422;2023-02-28T06:50:49;64.73;;;59.07;;
5710;SDS011;61291;52.524;13.422;2023-02-28T06:53:15;60.50;;;55.07;;
5710;SDS011;61291;52.524;13.422;2023-02-28T06:55:40;60.80;;;55.20;;
5710;SDS011;61291;52.524;13.422;2023-02-28T06:58:06;64.43;;;58.03;;
5710;SDS011;61291;52.524;13.422;2023-02-28T07:00:39;66.83;;;61.37;;
5710;SDS011;61291;52.524;13.422;2023-02-28T07:03:08;71.13;;;63.67;;
5710;SDS011;61291;52.524;13.422;2023-02-28T07:05:35;65.47;;;59.73;;
5710;SDS011;61291;52.524;13.422;2023-02-28T07:08:01;67.27;;;61.03;;
5710;SDS011;61291;52.524;13.422;2023-02-28T07:10:28;66.07;;;60.77;;
5710;SDS011;61291;52.524;13.422;2023-02-28T07:12:53;65.57;;;60.00;;
5710;SDS011;61291;52.524;13.422;2023-02-28T07:15:19;67.77;;;61.40;;
5710;SDS011;61291;52.524;13.422;2023-02-28T07:17:44;62.00;;;57.27;;
5710;SDS011;61291;52.524;13.422;2023-02-28T07:20:10;63.03;;;58.10;;
5710;SDS011;61291;52.524;13.422;2023-02-28T07:22:36;65.17;;;59.63;;
5710;SDS011;61291;52.524;13.422;2023-02-28T07:25:03;65.23;;;59.47;;
5710;SDS011;61291;52.524;13.422;2023-02-28T07:27:29;70.83;;;64.60;;
5710;SDS011;61291;52.524;13.422;2023-02-28T07:29:55;70.70;;;65.20;;
5710;SDS011;61291;52.524;13.422;2023-02-28T07:32:20;68.50;;;62.50;;
5710;SDS011;61291;52.524;13.422;2023-02-28T07:34:46;66.07;;;60.67;;
5710;SDS011;61291;52.524;13.422;2023-02-28T07:37:11;61.87;;;56.87;;
5710;SDS011;61291;52.524;13.422;2023-02-28T07:39:37;67.80;;;61.90;;
5710;SDS011;61291;52.524;13.422;2023-02-28T07:42:06;62.90;;;57.73;;
5710;SDS011;61291;52.524;13.422;2023-02-28T07:44:34;64.10;;;59.03;;
5710;SDS011;61291;52.524;13.422;2023-02-28T07:47:00;63.47;;;58.07;;
5710;SDS011;61291;52.524;13.422;2023-02-28T07:49:25;69.93;;;63.53;;
5710;SDS011;61291;52.524;13.422;2023-02-28T07:51:51;64.17;;;58.83;;
5710;SDS011;61291;52.524;13.422;2023-02-28T07:54:16;68.20;;;62.90;;
5710;SDS011;61291;52.524;13.422;2023-02-28T07:56:42;66.57;;;60.97;;
5710;SDS011;61291;52.524;13.422;2023-02-28T07:59:07;67.70;;;61.57;;
5710;SDS011;61291;52.524;13.422;2023-02-28T08:01:34;69.03;;;63.37;;
5710;SDS011;61291;52.524;13.422;2023-02-28T08:03:59;70.53;;;63.87;;
5710;SDS011;61291;52.524;13.422;2023-02-28T08:06:25;70.90;;;64.90;;
5710;SDS011;61291;52.524;13.422;2023-02-28T08:08:52;70.60;;;64.47;;
5710;SDS011;61291;52.524;13.422;2023-02-28T08:11:18;71.10;;;64.77;;
5710;SDS011;61291;52.524;13.422;2023-02-28T08:13:44;70.17;;;64.43;;
5710;SDS011;61291;52.524;13.422;2023-02-28T08:16:11;68.38;;;62.85;;
5710;SDS011;61291;52.524;13.422;2023-02-28T08:18:42;73.63;;;66.87;;
5710;SDS011;61291;52.524;13.422;2023-02-28T08:21:08;73.60;;;66.83;;
5710;SDS011;61291;52.524;13.422;2023-02-28T08:23:35;67.63;;;62.33;;
5710;SDS011;61291;52.524;13.422;2023-02-28T08:26:01;72.43;;;66.27;;
5710;SDS011;61291;52.524;13.422;2023-02-28T08:28:28;69.70;;;64.30;;
5710;SDS011;61291;52.524;13.422;2023-02-28T08:30:53;66.53;;;60.97;;
5710;SDS011;61291;52.524;13.422;2023-02-28T08:33:19;73.67;;;63.50;;
5710;SDS011;61291;52.524;13.422;2023-02-28T08:35:45;63.40;;;58.27;;
5710;SDS011;61291;52.524;13.422;2023-02-28T08:38:10;65.63;;;60.37;;
5710;SDS011;61291;52.524;13.422;2023-02-28T08:40:35;65.27;;;60.27;;
5710;SDS011;61291;52.524;13.422;2023-02-28T08:43:01;62.63;;;57.77;;
5710;SDS011;61291;52.524;13.422;2023-02-28T08:45:26;68.43;;;62.53;;
5710;SDS011;61291;52.524;13.422;2023-02-28T08:47:53;64.87;;;60.17;;
5710;SDS011;61291;52.524;13.422;2023-02-28T08:50:20;66.27;;;60.53;;
5710;SDS011;61291;52.524;13.422;2023-02-28T08:52:45;64.27;;;58.83;;
5710;SDS011;61291;52.524;13.422;2023-02-28T08:55:11;70.43;;;63.33;;
5710;SDS011;61291;52.524;13.422;2023-02-28T08:57:36;67.27;;;60.70;;
5710;SDS011;61291;52.524;13.422;2023-02-28T09:00:03;64.40;;;58.70;;
5710;SDS011;61291;52.524;13.422;2023-02-28T09:02:29;67.20;;;61.20;;
5710;SDS011;61291;52.524;13.422;2023-02-28T09:04:56;63.00;;;58.30;;
5710;SDS011;61291;52.524;13.422;2023-02-28T09:07:22;63.23;;;57.50;;
5710;SDS011;61291;52.524;13.422;2023-02-28T09:09:47;63.10;;;58.13;;
5710;SDS011;61291;52.524;13.422;2023-02-28T09:12:22;62.67;;;58.07;;
5710;SDS011;61291;52.524;13.422;2023-02-28T09:14:51;61.50;;;56.83;;
5710;SDS011;61291;52.524;13.422;2023-02-28T09:17:17;62.90;;;57.40;;
5710;SDS011;61291;52.524;13.422;2023-02-28T09:19:43;65.03;;;59.80;;
5710;SDS011;61291;52.524;13.422;2023-02-28T09:22:09;64.20;;;59.03;;
5710;SDS011;61291;52.524;13.422;2023-02-28T09:24:36;64.77;;;60.27;;
5710;SDS011;61291;52.524;13.422;2023-02-28T09:27:02;60.23;;;55.87;;
5710;SDS011;61291;52.524;13.422;2023-02-28T09:29:29;60.90;;;56.40;;
5710;SDS011;61291;52.524;13.422;2023-02-28T09:31:55;61.13;;;56.57;;
5710;SDS011;61291;52.524;13.422;2023-02-28T09:34:23;62.03;;;57.53;;
5710;SDS011;61291;52.524;13.422;2023-02-28T09:36:49;62.00;;;57.30;;
5710;SDS011;61291;52.524;13.422;2023-02-28T09:39:20;62.33;;;57.50;;
5710;SDS011;61291;52.524;13.422;2023-02-28T09:41:48;61.40;;;56.60;;
5710;SDS011;61291;52.524;13.422;2023-02-28T09:44:20;61.60;;;56.80;;
5710;SDS011;61291;52.524;13.422;2023-02-28T09:46:57;63.50;;;58.00;;
5710;SDS011;61291;52.524;13.422;2023-02-28T09:49:37;61.13;;;56.13;;
5710;SDS011;61291;52.524;13.422;2023-02-28T09:52:10;60.65;;;55.85;;
5710;SDS011;61291;52.524;13.422;2023-02-28T09:54:49;60.27;;;55.40;;
5710;SDS011;61291;52.524;13.422;2023-02-28T10:00:10;63.07;;;58.20;;
5710;SDS011;61291;52.524;13.422;2023-02-28T10:05:29;63.47;;;58.60;;
5710;SDS011;61291;52.524;13.422;2023-02-28T10:10:57;58.67;;;54.17;;
5710;SDS011;61291;52.524;13.422;2023-02-28T10:13:32;67.67;;;62.23;;
5710;SDS011;61291;52.524;13.422;2023-02-28T10:16:10;62.00;;;57.00;;
5710;SDS011;61291;52.524;13.422;2023-02-28T10:18:53;59.80;;;55.40;;
5710;SDS011;61291;52.524;13.422;2023-02-28T10:21:41;64.33;;;59.57;;
5710;SDS011;61291;52.524;13.422;2023-02-28T10:24:19;61.30;;;56.53;;
5710;SDS011;61291;52.524;13.422;2023-02-28T10:26:52;62.73;;;57.80;;
5710;SDS011;61291;52.524;13.422;2023-02-28T10:29:24;64.27;;;59.07;;
5710;SDS011;61291;52.524;13.422;2023-02-28T10:31:49;61.97;;;57.37;;
5710;SDS011;61291;52.524;13.422;2023-02-28T10:34:15;61.53;;;56.90;;
5710;SDS011;61291;52.524;13.422;2023-02-28T10:36:40;61.83;;;57.03;;
5710;SDS011;61291;52.524;13.422;2023-02-28T10:42:03;61.20;;;56.50;;
5710;SDS011;61291;52.524;13.422;2023-02-28T10:44:29;63.27;;;58.10;;
5710;SDS011;61291;52.524;13.422;2023-02-28T10:46:54;65.77;;;60.77;;
5710;SDS011;61291;52.524;13.422;2023-02-28T10:49:27;64.73;;;59.20;;
5710;SDS011;61291;52.524;13.422;2023-02-28T10:51:54;68.63;;;63.43;;
5710;SDS011;61291;52.524;13.422;2023-02-28T10:54:23;65.57;;;60.67;;
5710;SDS011;61291;52.524;13.422;2023-02-28T10:57:05;65.17;;;60.00;;
5710;SDS011;61291;52.524;13.422;2023-02-28T10:59:33;62.60;;;57.77;;
5710;SDS011;61291;52.524;13.422;2023-02-28T11:02:00;59.57;;;54.77;;
5710;SDS011;61291;52.524;13.422;2023-02-28T11:06:58;64.97;;;59.10;;
5710;SDS011;61291;52.524;13.422;2023-02-28T11:09:35;60.60;;;56.00;;
5710;SDS011;61291;52.524;13.422;2023-02-28T11:12:05;61.07;;;56.07;;
5710;SDS011;61291;52.524;13.422;2023-02-28T11:14:35;61.67;;;56.97;;
5710;SDS011;61291;52.524;13.422;2023-02-28T11:17:20;62.17;;;57.20;;
5710;SDS011;61291;52.524;13.422;2023-02-28T11:19:52;58.60;;;54.30;;
5710;SDS011;61291;52.524;13.422;2023-02-28T11:22:29;59.23;;;54.83;;
5710;SDS011;61291;52.524;13.422;2023-02-28T11:25:02;58.70;;;54.10;;
5710;SDS011;61291;52.524;13.422;2023-02-28T11:30:02;70.90;;;65.80;;
5710;SDS011;61291;52.524;13.422;2023-02-28T11:32:29;64.20;;;59.30;;
5710;SDS011;61291;52.524;13.422;2023-02-28T11:35:00;56.75;;;52.35;;
5710;SDS011;61291;52.524;13.422;2023-02-28T11:37:27;63.90;;;59.10;;
5710;SDS011;61291;52.524;13.422;2023-02-28T11:39:54;66.03;;;61.13;;
5710;SDS011;61291;52.524;13.422;2023-02-28T11:47:47;70.33;;;64.53;;
5710;SDS011;61291;52.524;13.422;2023-02-28T11:50:27;67.23;;;62.00;;
5710;SDS011;61291;52.524;13.422;2023-02-28T11:53:16;62.57;;;57.90;;
5710;SDS011;61291;52.524;13.422;2023-02-28T12:01:33;61.90;;;57.30;;
5710;SDS011;61291;52.524;13.422;2023-02-28T12:04:17;61.50;;;57.00;;
5710;SDS011;61291;52.524;13.422;2023-02-28T12:07:21;66.50;;;61.50;;
5710;SDS011;61291;52.524;13.422;2023-02-28T12:10:28;64.10;;;58.70;;
5710;SDS011;61291;52.524;13.422;2023-02-28T12:18:26;65.37;;;60.37;;
5710;SDS011;61291;52.524;13.422;2023-02-28T12:21:15;62.80;;;58.20;;
5710;SDS011;61291;52.524;13.422;2023-02-28T12:24:01;66.43;;;61.63;;
5710;SDS011;61291;52.524;13.422;2023-02-28T12:26:45;64.37;;;59.63;;
5710;SDS011;61291;52.524;13.422;2023-02-28T12:29:23;66.80;;;61.70;;
5710;SDS011;61291;52.524;13.422;2023-02-28T12:32:04;69.10;;;63.60;;
5710;SDS011;61291;52.524;13.422;2023-02-28T12:34:38;65.73;;;59.57;;
5710;SDS011;61291;52.524;13.422;2023-02-28T12:37:10;67.07;;;61.20;;
5710;SDS011;61291;52.524;13.422;2023-02-28T12:39:46;68.90;;;63.77;;
5710;SDS011;61291;52.524;13.422;2023-02-28T12:42:17;67.50;;;62.40;;
5710;SDS011;61291;52.524;13.422;2023-02-28T12:44:51;68.23;;;63.33;;
5710;SDS011;61291;52.524;13.422;2023-02-28T12:47:19;68.27;;;63.00;;
5710;SDS011;61291;52.524;13.422;2023-02-28T12:52:48;65.13;;;59.93;;
5710;SDS011;61291;52.524;13.422;2023-02-28T12:55:23;67.43;;;62.27;;
5710;SDS011;61291;52.524;13.422;2023-02-28T12:58:12;66.75;;;62.15;;
5710;SDS011;61291;52.524;13.422;2023-02-28T13:04:06;69.17;;;64.27;;
5710;SDS011;61291;52.524;13.422;2023-02-28T13:06:59;66.10;;;61.30;;
5710;SDS011;61291;52.524;13.422;2023-02-28T13:09:29;67.57;;;62.67;;
5710;SDS011;61291;52.524;13.422;2023-02-28T13:11:55;68.97;;;63.90;;
5710;SDS011;61291;52.524;13.422;2023-02-28T13:17:03;66.20;;;61.10;;
5710;SDS011;61291;52.524;13.422;2023-02-28T13:19:45;66.63;;;61.53;;
5710;SDS011;61291;52.524;13.422;2023-02-28T13:22:19;63.50;;;58.90;;
5710;SDS011;61291;52.524;13.422;2023-02-28T13:25:03;68.90;;;63.90;;
5710;SDS011;61291;52.524;13.422;2023-02-28T13:28:13;65.20;;;59.20;;
5710;SDS011;61291;52.524;13.422;2023-02-28T13:31:00;67.10;;;62.20;;
5710;SDS011;61291;52.524;13.422;2023-02-28T13:33:30;66.60;;;61.67;;
5710;SDS011;61291;52.524;13.422;2023-02-28T13:39:00;67.43;;;62.50;;
5710;SDS011;61291;52.524;13.422;2023-02-28T13:44:01;70.07;;;65.43;;
5710;SDS011;61291;52.524;13.422;2023-02-28T13:46:34;66.53;;;61.70;;
5710;SDS011;61291;52.524;13.422;2023-02-28T14:02:54;66.80;;;61.90;;
5710;SDS011;61291;52.524;13.422;2023-02-28T14:05:43;73.23;;;68.10;;
5710;SDS011;61291;52.524;13.422;2023-02-28T14:08:16;70.20;;;64.40;;
5710;SDS011;61291;52.524;13.422;2023-02-28T14:10:46;66.80;;;62.20;;
5710;SDS011;61291;52.524;13.422;2023-02-28T14:13:36;65.70;;;60.90;;
5710;SDS011;61291;52.524;13.422;2023-02-28T14:16:13;65.87;;;61.37;;
5710;SDS011;61291;52.524;13.422;2023-02-28T14:18:47;64.30;;;59.60;;
5710;SDS011;61291;52.524;13.422;2023-02-28T14:21:38;64.90;;;59.87;;
5710;SDS011;61291;52.524;13.422;2023-02-28T14:24:23;68.97;;;63.20;;
5710;SDS011;61291;52.524;13.422;2023-02-28T14:27:20;64.03;;;59.33;;
5710;SDS011;61291;52.524;13.422;2023-02-28T14:33:13;62.50;;;57.77;;
5710;SDS011;61291;52.524;13.422;2023-02-28T14:38:55;60.27;;;55.97;;
5710;SDS011;61291;52.524;13.422;2023-02-28T14:41:23;61.63;;;57.40;;
5710;SDS011;61291;52.524;13.422;2023-02-28T14:43:55;62.93;;;58.13;;
5710;SDS011;61291;52.524;13.422;2023-02-28T14:46:24;60.60;;;56.00;;
5710;SDS011;61291;52.524;13.422;2023-02-28T14:48:53;59.57;;;55.17;;
5710;SDS011;61291;52.524;13.422;2023-02-28T14:51:22;59.53;;;54.63;;
5710;SDS011;61291;52.524;13.422;2023-02-28T14:53:49;58.70;;;54.13;;
5710;SDS011;61291;52.524;13.422;2023-02-28T14:56:23;58.83;;;54.17;;
5710;SDS011;61291;52.524;13.422;2023-02-28T14:58:59;61.77;;;57.07;;
5710;SDS011;61291;52.524;13.422;2023-02-28T15:01:25;63.80;;;58.90;;
5710;SDS011;61291;52.524;13.422;2023-02-28T15:03:59;63.10;;;58.17;;
5710;SDS011;61291;52.524;13.422;2023-02-28T15:06:27;60.30;;;55.83;;
5710;SDS011;61291;52.524;13.422;2023-02-28T15:09:06;62.83;;;57.90;;
5710;SDS011;61291;52.524;13.422;2023-02-28T15:11:33;60.20;;;55.50;;
5710;SDS011;61291;52.524;13.422;2023-02-28T15:14:00;64.87;;;60.03;;
5710;SDS011;61291;52.524;13.422;2023-02-28T15:16:28;67.17;;;62.10;;
5710;SDS011;61291;52.524;13.422;2023-02-28T15:19:06;61.30;;;56.60;;
5710;SDS011;61291;52.524;13.422;2023-02-28T15:21:41;61.33;;;56.70;;
5710;SDS011;61291;52.524;13.422;2023-02-28T15:24:16;59.73;;;55.63;;
5710;SDS011;61291;52.524;13.422;2023-02-28T15:26:49;60.00;;;55.70;;
5710;SDS011;61291;52.524;13.422;2023-02-28T15:29:20;65.50;;;60.23;;
5710;SDS011;61291;52.524;13.422;2023-02-28T15:31:55;58.40;;;54.10;;
5710;SDS011;61291;52.524;13.422;2023-02-28T15:34:37;60.60;;;56.33;;
5710;SDS011;61291;52.524;13.422;2023-02-28T15:37:52;60.93;;;56.53;;
5710;SDS011;61291;52.524;13.422;2023-02-28T15:39:55;60.90;;;56.50;;
5710;SDS011;61291;52.524;13.422;2023-02-28T15:42:26;63.83;;;59.03;;
5710;SDS011;61291;52.524;13.422;2023-02-28T15:44:53;58.70;;;54.20;;
5710;SDS011;61291;52.524;13.422;2023-02-28T15:47:20;61.37;;;56.03;;
5710;SDS011;61291;52.524;13.422;2023-02-28T15:49:49;62.57;;;57.53;;
5710;SDS011;61291;52.524;13.422;2023-02-28T15:52:18;61.73;;;56.97;;
5710;SDS011;61291;52.524;13.422;2023-02-28T15:54:52;58.90;;;54.40;;
5710;SDS011;61291;52.524;13.422;2023-02-28T15:57:20;60.90;;;56.40;;
5710;SDS011;61291;52.524;13.422;2023-02-28T15:59:52;62.30;;;57.17;;
5710;SDS011;61291;52.524;13.422;2023-02-28T16:02:27;62.97;;;57.43;;
5710;SDS011;61291;52.524;13.422;2023-02-28T16:04:59;58.40;;;54.20;;
5710;SDS011;61291;52.524;13.422;2023-02-28T16:07:41;56.40;;;52.40;;
5710;SDS011;61291;52.524;13.422;2023-02-28T16:10:09;57.23;;;53.10;;